Time;durP1;ratioP1;P1;durP2;ratioP2;P2;SDS_P1;SDS_P2;PMS_P1;PMS_P2;Temp;Humidity;BMP_temperature;BMP_pressure;BME280_temperature;BME280_humidity;BME280_pressure;Samples;Min_cycle;Max_cycle;Signal;HPM_P1;HPM_P2
2022/03/08 00:00:38;;;;;;;7.32;4.80;;;;;;;16.10;30.95;93748.63;4915874;29;20039;-84
2022/03/08 00:03:04;;;;;;;6.28;4.38;;;;;;;16.15;30.75;93744.44;4900049;29;20048;-84
2022/03/08 00:05:29;;;;;;;5.70;4.07;;;;;;;16.14;30.76;93739.47;4899460;29;20095;-84
2022/03/08 00:07:54;;;;;;;5.45;4.13;;;;;;;16.14;30.99;93740.22;4915104;29;20403;-84
2022/03/08 00:10:20;;;;;;;5.60;4.32;;;;;;;16.08;30.91;93725.78;4916743;28;20521;-84
2022/03/08 00:12:48;;;;;;;7.10;4.53;;;;;;;16.13;30.69;93730.53;4936547;28;20113;-84
2022/03/08 00:15:18;;;;;;;5.28;4.13;;;;;;;16.12;30.81;93718.13;4934799;29;20082;-84
2022/03/08 00:17:43;;;;;;;5.70;3.58;;;;;;;16.08;31.28;93723.06;4903675;29;20031;-84
2022/03/08 00:20:09;;;;;;;6.30;4.32;;;;;;;16.08;30.73;93723.81;4918085;29;20043;-84
2022/03/08 00:22:35;;;;;;;5.47;4.07;;;;;;;16.06;31.03;93723.56;4920570;29;20110;-84
2022/03/08 00:25:03;;;;;;;5.85;3.97;;;;;;;16.11;31.31;93733.00;4953649;28;20043;-84
2022/03/08 00:27:28;;;;;;;5.20;4.25;;;;;;;16.06;30.89;93729.00;4910656;29;20035;-84
2022/03/08 00:29:54;;;;;;;5.68;3.88;;;;;;;16.13;30.95;93729.78;4917917;29;20403;-84
2022/03/08 00:32:19;;;;;;;5.97;4.07;;;;;;;16.15;30.86;93728.06;4917588;29;20114;-84
2022/03/08 00:34:45;;;;;;;7.60;4.30;;;;;;;16.14;30.92;93723.84;4917871;29;20533;-84
2022/03/08 00:37:10;;;;;;;5.60;4.15;;;;;;;16.11;31.09;93725.56;4918399;29;20042;-84
2022/03/08 00:39:35;;;;;;;4.82;4.20;;;;;;;16.10;31.19;93721.34;4918242;29;20042;-86
2022/03/08 00:42:01;;;;;;;7.75;4.28;;;;;;;16.13;30.94;93721.59;4925530;29;20372;-84
2022/03/08 00:44:26;;;;;;;5.80;4.53;;;;;;;16.15;30.84;93721.88;4928064;28;20062;-91
2022/03/08 00:46:52;;;;;;;4.72;3.55;;;;;;;16.07;31.00;93711.41;4938590;28;20039;-91
2022/03/08 00:49:17;;;;;;;4.53;3.67;;;;;;;16.08;30.80;93714.88;4920106;29;20082;-84
2022/03/08 00:51:43;;;;;;;5.65;4.35;;;;;;;16.12;31.00;93715.41;4903138;29;20031;-84
2022/03/08 00:54:08;;;;;;;5.47;3.28;;;;;;;16.09;31.18;93710.91;4923222;28;20490;-83
2022/03/08 00:56:34;;;;;;;5.05;3.63;;;;;;;16.09;30.81;93708.94;4938450;28;20031;-84
2022/03/08 00:58:59;;;;;;;4.00;3.53;;;;;;;16.09;30.88;93708.94;4938058;28;20039;-87
2022/03/08 01:01:25;;;;;;;4.20;3.45;;;;;;;16.06;31.14;93714.63;4952479;28;20032;-85
2022/03/08 01:03:50;;;;;;;7.18;4.28;;;;;;;16.08;30.93;93712.91;4936067;28;20042;-84
2022/03/08 01:06:15;;;;;;;5.03;3.45;;;;;;;16.08;31.37;93717.59;4936369;29;20067;-84
2022/03/08 01:08:41;;;;;;;5.18;3.60;;;;;;;16.04;30.96;93706.94;4921030;29;20039;-87
2022/03/08 01:11:06;;;;;;;4.88;3.58;;;;;;;16.08;31.06;93712.91;4917257;29;20415;-84
2022/03/08 01:13:32;;;;;;;4.75;3.55;;;;;;;16.05;30.93;93708.41;4918527;29;20395;-87
2022/03/08 01:15:59;;;;;;;4.38;3.70;;;;;;;16.03;31.13;93701.97;4937963;29;20110;-85
2022/03/08 01:18:24;;;;;;;6.22;4.03;;;;;;;16.06;31.03;93701.72;4923347;29;20039;-85
2022/03/08 01:20:50;;;;;;;4.30;3.45;;;;;;;16.04;31.03;93687.84;4924600;29;20035;-90
2022/03/08 01:23:15;;;;;;;4.78;3.45;;;;;;;16.10;30.86;93696.81;4906758;29;20414;-85
2022/03/08 01:25:40;;;;;;;4.35;3.60;;;;;;;16.05;30.88;93689.34;4919004;29;20046;-83
2022/03/08 01:28:08;;;;;;;3.97;3.45;;;;;;;16.09;31.22;93695.31;4921449;28;20043;-84
2022/03/08 01:30:33;;;;;;;5.63;3.75;;;;;;;16.11;31.35;93692.09;4938387;28;20039;-86
2022/03/08 01:32:59;;;;;;;5.55;3.47;;;;;;;16.08;30.90;93698.53;4938389;28;20066;-85
2022/03/08 01:35:24;;;;;;;4.10;3.22;;;;;;;16.07;30.96;93686.88;4928385;29;20053;-85
2022/03/08 01:37:50;;;;;;;4.35;3.45;;;;;;;16.09;30.95;93689.84;4919993;29;20086;-84
2022/03/08 01:40:15;;;;;;;5.03;3.70;;;;;;;16.09;31.10;93683.66;4934154;29;20073;-87
2022/03/08 01:42:46;;;;;;;5.20;3.55;;;;;;;16.11;31.07;93681.94;4917666;28;20035;-84
2022/03/08 01:45:11;;;;;;;4.93;3.28;;;;;;;16.09;30.83;93678.19;4954449;28;20042;-84
2022/03/08 01:47:37;;;;;;;3.97;3.28;;;;;;;16.07;31.15;93675.97;4921146;29;20376;-84
2022/03/08 01:50:02;;;;;;;4.35;3.28;;;;;;;16.10;30.81;93679.69;4920772;29;20050;-84
2022/03/08 01:52:28;;;;;;;4.75;3.55;;;;;;;16.04;31.17;93684.38;4922896;29;20502;-84
2022/03/08 01:54:53;;;;;;;4.97;3.28;;;;;;;16.09;31.12;93684.41;4921547;29;20450;-85
2022/03/08 01:57:25;;;;;;;4.30;3.17;;;;;;;16.10;30.85;93682.41;4921882;29;20031;-84
2022/03/08 01:59:51;;;;;;;3.80;3.20;;;;;;;16.05;30.98;93685.84;4908011;29;20043;-84
2022/03/08 02:02:17;;;;;;;4.65;3.35;;;;;;;16.07;31.08;93677.94;4921137;29;20031;-85
2022/03/08 02:04:43;;;;;;;4.80;3.30;;;;;;;16.07;31.12;93672.47;4937119;29;20071;-84
2022/03/08 02:07:08;;;;;;;6.53;3.78;;;;;;;16.02;31.04;93668.50;4905044;29;20043;-86
2022/03/08 02:09:33;;;;;;;5.05;3.25;;;;;;;16.02;31.21;93665.75;4936734;29;20085;-84
2022/03/08 02:11:59;;;;;;;4.50;3.28;;;;;;;16.01;31.06;93661.56;4939436;28;20047;-84
2022/03/08 02:14:26;;;;;;;4.47;3.40;;;;;;;16.07;30.80;93662.31;4939133;28;20045;-84
2022/03/08 02:16:51;;;;;;;5.95;3.85;;;;;;;16.05;31.10;93653.88;4939678;28;20478;-84
2022/03/08 02:19:17;;;;;;;5.22;3.08;;;;;;;16.00;31.21;93656.59;4940376;28;20045;-84
2022/03/08 02:21:42;;;;;;;6.15;3.45;;;;;;;16.05;31.17;93656.59;4923522;28;20035;-84
2022/03/08 02:24:08;;;;;;;4.38;3.20;;;;;;;16.01;31.14;93656.13;4921597;28;20132;-85
2022/03/08 02:26:33;;;;;;;3.65;3.13;;;;;;;16.02;31.00;93652.13;4936605;29;20039;-84
2022/03/08 02:28:59;;;;;;;4.10;3.13;;;;;;;16.05;31.12;93651.16;4941122;28;20058;-84
2022/03/08 02:31:25;;;;;;;3.75;3.00;;;;;;;16.01;31.17;93645.22;4954956;28;20577;-83
2022/03/08 02:33:50;;;;;;;3.92;3.03;;;;;;;16.01;31.34;93647.19;4975489;28;20030;-84
2022/03/08 02:36:16;;;;;;;4.50;3.28;;;;;;;16.07;31.32;93647.94;4959827;28;20381;-84
2022/03/08 02:38:41;;;;;;;4.95;3.30;;;;;;;16.02;31.09;93654.13;4928599;28;20171;-85
2022/03/08 02:41:07;;;;;;;3.58;2.58;;;;;;;16.04;31.18;93654.38;4926992;28;20031;-85
2022/03/08 02:43:32;;;;;;;4.43;3.03;;;;;;;16.06;31.31;93652.66;4958925;28;20031;-84
2022/03/08 02:45:58;;;;;;;3.05;2.75;;;;;;;16.02;31.21;93648.69;4936993;29;20039;-84
2022/03/08 02:48:26;;;;;;;5.03;3.45;;;;;;;16.00;31.06;93651.91;4951369;28;20094;-84
2022/03/08 02:50:52;;;;;;;5.40;3.55;;;;;;;16.01;31.22;93650.66;4920705;29;20280;-84
2022/03/08 02:53:17;;;;;;;3.58;2.97;;;;;;;15.98;31.16;93648.91;4921095;29;20170;-84
2022/03/08 02:55:42;;;;;;;4.43;2.88;;;;;;;15.98;31.12;93648.91;4920237;28;20503;-84
2022/03/08 02:58:08;;;;;;;4.00;3.03;;;;;;;15.99;31.29;93639.50;4949330;28;20055;-88
2022/03/08 03:00:33;;;;;;;3.67;2.85;;;;;;;15.99;31.28;93652.38;4938435;29;20087;-84
2022/03/08 03:02:59;;;;;;;4.00;3.25;;;;;;;16.03;31.14;93641.97;4921248;29;20039;-84
2022/03/08 03:05:24;;;;;;;4.07;3.05;;;;;;;16.00;31.22;93642.97;4920699;28;20106;-84
2022/03/08 03:07:50;;;;;;;6.03;3.30;;;;;;;16.03;31.16;93642.72;4920289;29;20047;-84
2022/03/08 03:10:17;;;;;;;3.28;2.60;;;;;;;16.02;31.07;93643.22;4919839;28;20046;-83
2022/03/08 03:12:42;;;;;;;3.80;3.22;;;;;;;16.00;31.20;93635.53;4937218;29;20062;-84
2022/03/08 03:15:09;;;;;;;3.65;2.90;;;;;;;15.99;31.20;93636.78;4921206;29;20479;-84
2022/03/08 03:17:34;;;;;;;4.30;2.85;;;;;;;16.01;30.91;93633.56;4936927;29;20040;-84
2022/03/08 03:20:00;;;;;;;3.88;2.92;;;;;;;16.00;31.22;93643.72;4923105;29;20035;-83
2022/03/08 03:22:25;;;;;;;5.38;2.90;;;;;;;16.02;31.17;93641.22;4921656;29;20599;-92
2022/03/08 03:24:51;;;;;;;3.17;2.83;;;;;;;16.05;31.13;93642.22;4970276;28;20034;-84
2022/03/08 03:27:16;;;;;;;4.82;3.28;;;;;;;16.04;31.42;93646.94;4920032;28;20039;-84
2022/03/08 03:29:42;;;;;;;4.10;3.05;;;;;;;16.00;31.07;93646.44;4940795;28;20035;-84
2022/03/08 03:32:07;;;;;;;3.63;2.97;;;;;;;16.00;31.08;93643.72;4957546;28;20050;-85
2022/03/08 03:34:33;;;;;;;4.15;2.90;;;;;;;16.03;31.20;93648.16;4944095;28;20043;-85
2022/03/08 03:36:58;;;;;;;4.65;3.13;;;;;;;16.00;31.36;93642.97;4948434;28;20050;-85
2022/03/08 03:39:23;;;;;;;3.38;2.78;;;;;;;15.99;31.08;93644.94;4930920;28;20038;-85
2022/03/08 03:41:49;;;;;;;3.05;2.55;;;;;;;16.03;31.17;93652.88;4920918;29;20047;-84
2022/03/08 03:44:14;;;;;;;4.80;3.13;;;;;;;16.04;31.33;93657.09;4908446;29;20039;-84
2022/03/08 03:46:40;;;;;;;3.42;2.83;;;;;;;16.05;31.30;93648.44;4934755;28;20398;-84
2022/03/08 03:49:05;;;;;;;3.28;2.65;;;;;;;15.99;31.19;93655.09;4923584;28;20043;-84
2022/03/08 03:51:30;;;;;;;4.75;3.47;;;;;;;15.98;31.16;93654.38;4939651;28;20066;-84
2022/03/08 03:53:56;;;;;;;2.95;2.42;;;;;;;15.97;31.32;93665.75;4938928;28;20097;-84
2022/03/08 03:56:21;;;;;;;4.32;2.60;;;;;;;16.01;31.15;93672.47;4955863;28;20043;-84
2022/03/08 03:58:47;;;;;;;4.47;2.72;;;;;;;15.96;31.05;93664.25;4961299;28;20424;-86
2022/03/08 04:01:12;;;;;;;4.10;2.92;;;;;;;16.01;31.15;93669.75;4922228;29;20039;-84
2022/03/08 04:03:38;;;;;;;4.25;2.60;;;;;;;15.97;31.46;93677.41;4936885;29;20038;-84
2022/03/08 04:06:03;;;;;;;2.65;2.45;;;;;;;15.97;31.20;93671.97;4918969;29;20507;-84
2022/03/08 04:08:29;;;;;;;3.63;2.65;;;;;;;15.96;31.23;93672.44;4921139;29;20075;-87
2022/03/08 04:10:54;;;;;;;2.97;2.63;;;;;;;16.01;31.15;93667.03;4925770;28;20042;-84
2022/03/08 04:13:20;;;;;;;4.43;2.72;;;;;;;16.00;31.20;93670.25;4940676;28;20039;-84
2022/03/08 04:15:45;;;;;;;3.17;2.88;;;;;;;15.97;31.24;93673.94;4926632;28;20288;-86
2022/03/08 04:18:11;;;;;;;4.00;2.70;;;;;;;15.98;31.27;93667.25;4926549;28;20054;-84
2022/03/08 04:20:36;;;;;;;4.20;2.78;;;;;;;15.98;31.00;93672.72;4940359;28;20034;-84
2022/03/08 04:23:02;;;;;;;3.40;2.53;;;;;;;15.98;31.27;93670.72;4937488;28;20088;-85
2022/03/08 04:25:27;;;;;;;3.00;2.40;;;;;;;15.98;30.94;93675.44;4920118;29;20039;-84
2022/03/08 04:27:53;;;;;;;3.33;2.83;;;;;;;15.99;31.26;93671.47;4921756;29;20047;-84
2022/03/08 04:30:18;;;;;;;2.80;2.50;;;;;;;15.97;31.04;93663.03;4936749;28;20050;-85
2022/03/08 04:32:44;;;;;;;2.92;2.63;;;;;;;15.99;30.88;93677.66;4924193;28;20038;-84
2022/03/08 04:35:09;;;;;;;3.72;3.00;;;;;;;16.00;31.32;93665.53;4922633;28;20043;-84
2022/03/08 04:37:35;;;;;;;3.20;2.67;;;;;;;16.02;31.18;93665.03;4938771;28;20090;-84
2022/03/08 04:40:02;;;;;;;4.78;2.83;;;;;;;15.97;31.30;93674.69;4940356;28;20481;-84
2022/03/08 04:42:27;;;;;;;3.70;2.80;;;;;;;15.99;31.20;93668.75;4925241;29;20054;-84
2022/03/08 04:44:53;;;;;;;3.60;2.42;;;;;;;15.97;31.29;93668.47;4937403;29;20039;-84
2022/03/08 04:47:18;;;;;;;2.65;2.30;;;;;;;16.00;31.23;93672.97;4938380;28;20039;-84
2022/03/08 04:49:44;;;;;;;3.17;2.63;;;;;;;15.98;31.19;93675.44;4920157;29;20035;-84
2022/03/08 04:52:09;;;;;;;3.60;2.60;;;;;;;15.96;31.11;93684.09;4922375;28;20031;-84
2022/03/08 04:54:35;;;;;;;3.00;2.53;;;;;;;15.99;31.29;93661.31;4942476;28;20018;-84
2022/03/08 04:57:00;;;;;;;2.72;2.50;;;;;;;15.98;31.32;93672.72;4925545;28;20425;-84
2022/03/08 04:59:25;;;;;;;3.00;2.70;;;;;;;16.01;31.07;93664.31;4937005;29;20520;-84
2022/03/08 05:01:51;;;;;;;2.95;2.30;;;;;;;15.95;31.37;93670.94;4924827;29;20071;-84
2022/03/08 05:04:16;;;;;;;3.13;2.35;;;;;;;15.96;31.50;93665.00;4905782;29;20047;-84
2022/03/08 05:06:42;;;;;;;3.65;2.88;;;;;;;15.93;31.43;93665.97;4905773;29;20039;-84
2022/03/08 05:09:07;;;;;;;2.97;2.60;;;;;;;15.97;31.19;93671.97;4903954;28;20039;-84
2022/03/08 05:11:33;;;;;;;2.97;2.47;;;;;;;15.98;31.29;93670.72;4936893;29;20044;-84
2022/03/08 05:13:58;;;;;;;3.70;2.50;;;;;;;16.00;31.19;93668.25;4919067;29;20117;-84
2022/03/08 05:16:23;;;;;;;3.72;2.95;;;;;;;15.93;31.19;93665.97;4904542;29;20035;-84
2022/03/08 05:18:49;;;;;;;3.80;2.63;;;;;;;15.98;31.08;93659.06;4920774;28;20099;-84
2022/03/08 05:21:14;;;;;;;3.03;1.90;;;;;;;15.99;31.21;93657.84;4939283;29;20051;-84
2022/03/08 05:23:40;;;;;;;4.60;2.67;;;;;;;15.95;31.28;93655.34;4933029;28;20402;-85
2022/03/08 05:26:05;;;;;;;3.53;2.80;;;;;;;15.97;31.36;93665.75;4939719;28;20067;-86
2022/03/08 05:28:32;;;;;;;4.85;3.03;;;;;;;15.95;31.40;93649.88;4948155;28;20042;-86
2022/03/08 05:30:57;;;;;;;19.40;3.08;;;;;;;15.92;32.27;93664.50;4929624;28;20050;-86
2022/03/08 05:33:23;;;;;;;16.70;6.05;;;;;;;16.00;31.40;93668.25;4939207;28;20031;-88
2022/03/08 05:35:48;;;;;;;45.70;28.60;;;;;;;15.97;31.41;93657.56;4962046;28;20423;-89
2022/03/08 05:38:13;;;;;;;13.30;7.28;;;;;;;16.04;32.43;93665.28;4927021;29;20438;-87
2022/03/08 05:40:39;;;;;;;21.98;10.05;;;;;;;16.06;31.73;93666.28;4929062;28;20054;-87
2022/03/08 05:43:05;;;;;;;18.05;8.10;;;;;;;16.05;31.92;93662.06;4941524;28;20410;-87
2022/03/08 05:45:33;;;;;;;16.90;7.10;;;;;;;16.09;31.54;93673.50;4927924;28;20042;-92
2022/03/08 05:48:00;;;;;;;17.75;7.60;;;;;;;16.10;31.41;93671.50;4930372;29;20143;-87
2022/03/08 05:50:26;;;;;;;42.60;11.43;;;;;;;16.14;31.14;93663.09;4940872;28;20836;-92
2022/03/08 05:52:51;;;;;;;21.17;8.57;;;;;;;16.14;31.38;93669.31;4922765;28;20039;-89
2022/03/08 05:55:17;;;;;;;15.50;7.63;;;;;;;16.13;31.11;93665.09;4920837;29;20043;-90
2022/03/08 05:57:42;;;;;;;16.33;8.20;;;;;;;16.11;31.25;93657.38;4921020;29;20043;-89
2022/03/08 06:00:08;;;;;;;16.02;7.10;;;;;;;16.11;31.18;93660.13;4925858;28;20046;-89
2022/03/08 06:02:34;;;;;;;18.50;7.50;;;;;;;16.09;30.85;93667.28;4939110;28;20109;-90
2022/03/08 06:05:00;;;;;;;36.53;9.77;;;;;;;15.98;29.96;93673.44;4943165;28;20055;-89
2022/03/08 06:07:26;;;;;;;24.33;8.15;;;;;;;15.89;28.00;93675.63;4957575;28;20034;-90
2022/03/08 06:09:52;;;;;;;23.65;8.25;;;;;;;15.87;27.52;93687.00;4955280;29;20127;-90
2022/03/08 06:12:17;;;;;;;45.95;11.60;;;;;;;15.83;27.33;93681.03;4948914;29;20505;-91
2022/03/08 06:14:42;;;;;;;64.03;11.52;;;;;;;15.86;27.06;93680.06;4910023;29;20059;-89
2022/03/08 06:17:09;;;;;;;59.38;13.52;;;;;;;15.84;27.56;93684.50;4905128;29;20446;-88
2022/03/08 06:19:35;;;;;;;65.10;15.73;;;;;;;15.87;28.25;93689.00;4921176;29;20554;-86
2022/03/08 06:22:00;;;;;;;77.07;16.08;;;;;;;15.88;29.13;93680.31;4904592;29;20043;-91
2022/03/08 06:24:27;;;;;;;60.25;14.57;;;;;;;15.88;29.56;93679.56;4916520;29;20046;-93
2022/03/08 06:26:52;;;;;;;63.80;17.75;;;;;;;15.87;29.17;93689.00;4912309;29;20031;-91
2022/03/08 06:29:19;;;;;;;65.90;17.27;;;;;;;15.93;29.60;93681.59;4911781;29;20031;-90
2022/03/08 06:31:44;;;;;;;64.40;16.40;;;;;;;15.98;29.08;93676.19;4907050;29;20050;-89
2022/03/08 06:34:10;;;;;;;73.93;22.10;;;;;;;16.00;29.32;93686.59;4917086;29;20131;-92
2022/03/08 06:36:36;;;;;;;52.40;16.33;;;;;;;15.96;29.40;93683.34;4905739;29;20035;-91
2022/03/08 06:39:02;;;;;;;54.92;19.23;;;;;;;15.98;29.39;93678.91;4915969;29;20044;-87
2022/03/08 06:41:28;;;;;;;42.53;17.38;;;;;;;15.96;29.07;93686.81;4951874;28;20039;-85
2022/03/08 06:43:53;;;;;;;49.15;19.25;;;;;;;16.00;29.25;93695.53;4906302;29;20090;-87
2022/03/08 06:46:19;;;;;;;70.40;21.73;;;;;;;15.97;28.86;93693.78;4922729;29;20089;-87
2022/03/08 06:48:44;;;;;;;65.88;22.08;;;;;;;16.03;29.21;93693.78;4894262;28;20039;-86
2022/03/08 06:51:09;;;;;;;75.88;20.90;;;;;;;16.02;29.18;93695.03;4929810;28;20050;-88
2022/03/08 06:53:35;;;;;;;65.57;21.30;;;;;;;16.01;28.97;93693.53;4916344;29;20193;-88
2022/03/08 06:56:00;;;;;;;65.68;22.95;;;;;;;15.98;28.89;93706.16;4950321;28;20047;-85
2022/03/08 06:58:26;;;;;;;66.68;23.05;;;;;;;15.97;28.79;93693.03;4932213;29;20043;-88
2022/03/08 07:00:53;;;;;;;74.20;22.35;;;;;;;15.99;29.37;93696.75;4918324;29;20348;-84
2022/03/08 07:03:18;;;;;;;64.32;22.75;;;;;;;16.05;29.36;93694.03;4918485;29;20144;-85
2022/03/08 07:05:46;;;;;;;65.85;21.60;;;;;;;16.00;29.48;93687.34;4924093;29;20466;-85
2022/03/08 07:08:13;;;;;;;57.63;21.40;;;;;;;16.09;29.37;93689.84;4925361;29;20066;-83
2022/03/08 07:10:38;;;;;;;50.42;20.90;;;;;;;16.13;29.23;93689.63;4926567;29;20031;-85
2022/03/08 07:13:03;;;;;;;56.72;22.55;;;;;;;16.14;29.42;93685.66;4924512;29;20402;-86
2022/03/08 07:15:29;;;;;;;54.25;22.02;;;;;;;16.12;29.64;93693.59;4909049;29;20455;-87
2022/03/08 07:17:55;;;;;;;52.95;22.50;;;;;;;16.17;29.48;93703.03;4910486;29;20046;-85
2022/03/08 07:20:21;;;;;;;62.83;23.90;;;;;;;16.17;29.48;93695.59;4935595;28;20070;-89
2022/03/08 07:22:46;;;;;;;51.90;20.52;;;;;;;16.19;29.69;93692.38;4903461;29;20442;-87
2022/03/08 07:25:12;;;;;;;53.70;19.80;;;;;;;16.19;29.66;93690.41;4916995;29;20293;-85
2022/03/08 07:27:37;;;;;;;58.38;20.13;;;;;;;16.24;29.42;93697.84;4899639;29;20545;-88
2022/03/08 07:30:04;;;;;;;46.33;18.23;;;;;;;16.24;29.78;93702.59;4921239;29;20043;-87
2022/03/08 07:32:29;;;;;;;49.60;18.95;;;;;;;16.24;29.68;93706.03;4925759;29;20043;-89
2022/03/08 07:34:55;;;;;;;46.22;16.27;;;;;;;16.23;29.42;93703.81;4905583;29;20058;-87
2022/03/08 07:37:20;;;;;;;63.28;18.73;;;;;;;16.23;29.61;93712.75;4915779;29;20042;-91
2022/03/08 07:39:46;;;;;;;39.35;16.45;;;;;;;16.24;30.04;93708.75;4911244;29;20711;-90
2022/03/08 07:42:11;;;;;;;43.45;17.52;;;;;;;16.29;29.67;93710.78;4925478;28;20046;-90
2022/03/08 07:44:38;;;;;;;45.78;19.17;;;;;;;16.31;29.60;93707.56;4915913;29;20126;-90
2022/03/08 07:47:04;;;;;;;173.20;40.75;;;;;;;16.30;29.60;93715.00;4914817;29;20050;-89
2022/03/08 07:49:30;;;;;;;70.45;20.35;;;;;;;16.27;29.24;93701.56;4899953;29;20124;-88
2022/03/08 07:51:55;;;;;;;180.68;41.90;;;;;;;16.26;29.28;93719.19;4917414;29;20068;-89
2022/03/08 07:54:20;;;;;;;135.13;41.33;;;;;;;16.31;29.64;93719.22;4934743;29;20446;-86
2022/03/08 07:56:46;;;;;;;136.82;45.95;;;;;;;16.31;29.70;93716.47;4903613;29;20375;-88
2022/03/08 07:59:12;;;;;;;116.10;44.55;;;;;;;16.34;29.58;93718.22;4933099;29;20398;-84
2022/03/08 08:01:37;;;;;;;138.05;51.70;;;;;;;16.34;29.85;93712.03;4919381;29;20058;-91
2022/03/08 08:04:03;;;;;;;168.27;68.97;;;;;;;16.34;29.91;93720.97;4903543;29;20036;-85
2022/03/08 08:06:28;;;;;;;221.27;90.22;;;;;;;16.39;29.74;93722.22;4936051;29;20046;-89
2022/03/08 08:08:54;;;;;;;252.82;114.93;;;;;;;16.38;29.67;93726.94;4920003;29;20493;-88
2022/03/08 08:11:20;;;;;;;217.48;99.30;;;;;;;16.40;30.27;93732.66;4937763;28;20047;-86
2022/03/08 08:13:48;;;;;;;281.85;131.50;;;;;;;16.45;29.76;93731.91;4903479;29;20416;-88
2022/03/08 08:16:14;;;;;;;273.13;123.97;;;;;;;16.43;29.78;93725.47;4906435;29;20111;-88
2022/03/08 08:18:39;;;;;;;286.55;140.60;;;;;;;16.47;29.79;93728.69;4904865;29;20039;-89
2022/03/08 08:21:05;;;;;;;250.68;125.70;;;;;;;16.46;29.53;93727.94;4919990;29;20118;-88
2022/03/08 08:23:31;;;;;;;237.43;110.85;;;;;;;16.44;30.00;93725.00;4922445;29;20028;-91
2022/03/08 08:25:57;;;;;;;251.50;112.22;;;;;;;16.49;29.89;93728.22;4906729;29;20049;-89
2022/03/08 08:28:22;;;;;;;212.98;99.35;;;;;;;16.49;30.12;93736.41;4915791;29;20118;-86
2022/03/08 08:30:47;;;;;;;214.80;103.53;;;;;;;16.48;30.08;93738.38;4912415;29;20062;-91
2022/03/08 08:33:13;;;;;;;206.25;92.07;;;;;;;16.52;30.02;93733.44;4932001;29;20036;-90
2022/03/08 08:35:39;;;;;;;206.15;97.32;;;;;;;16.53;29.65;93742.38;4922773;29;20028;-91
2022/03/08 08:38:05;;;;;;;208.88;96.35;;;;;;;16.53;29.95;93737.66;4911354;29;20032;-90
2022/03/08 08:40:31;;;;;;;180.70;83.38;;;;;;;16.52;30.14;93730.72;4919811;29;20059;-86
2022/03/08 08:42:57;;;;;;;211.70;94.65;;;;;;;16.53;29.36;93728.72;4917105;29;20070;-88
2022/03/08 08:45:22;;;;;;;212.07;89.05;;;;;;;16.52;30.40;93735.41;4918411;29;20031;-91
2022/03/08 08:47:48;;;;;;;171.95;74.18;;;;;;;16.49;29.89;93728.94;4951651;29;20042;-88
2022/03/08 08:50:13;;;;;;;194.95;88.10;;;;;;;16.49;29.75;93728.94;4937236;29;20039;-88
2022/03/08 08:52:39;;;;;;;225.60;94.82;;;;;;;16.54;29.46;93722.78;4902992;29;20035;-88
2022/03/08 08:55:05;;;;;;;179.68;85.28;;;;;;;16.52;30.10;93725.25;4898665;29;20052;-89
2022/03/08 08:57:30;;;;;;;193.18;86.25;;;;;;;16.55;29.82;93723.53;4899458;29;20414;-91
2022/03/08 08:59:56;;;;;;;189.43;87.70;;;;;;;16.56;29.62;93725.00;4914971;29;20043;-89
2022/03/08 09:02:21;;;;;;;175.77;77.43;;;;;;;16.54;30.23;93724.75;4915680;29;21205;-90
2022/03/08 09:04:47;;;;;;;172.93;82.88;;;;;;;16.60;29.88;93728.25;4918881;29;20031;-87
2022/03/08 09:07:12;;;;;;;212.23;84.05;;;;;;;16.57;29.75;93724.53;4951557;29;20039;-92
2022/03/08 09:09:37;;;;;;;216.30;79.28;;;;;;;16.55;29.88;93723.53;4935195;29;20098;-89
2022/03/08 09:12:03;;;;;;;207.68;77.93;;;;;;;16.52;30.13;93719.78;4912934;28;20445;-88
2022/03/08 09:14:28;;;;;;;185.65;76.30;;;;;;;16.56;30.06;93719.56;4915967;28;20777;-90
2022/03/08 09:16:54;;;;;;;155.68;70.18;;;;;;;16.53;30.02;93715.81;4937453;28;20557;-88
2022/03/08 09:19:20;;;;;;;165.40;66.85;;;;;;;16.57;30.13;93721.06;4920589;29;20043;-87
2022/03/08 09:21:45;;;;;;;165.15;68.25;;;;;;;16.56;30.15;93727.75;4910093;28;20040;-90
2022/03/08 09:24:12;;;;;;;154.35;68.88;;;;;;;16.57;29.93;93719.06;4928724;28;20047;-89
2022/03/08 09:26:37;;;;;;;149.07;68.88;;;;;;;16.56;29.99;93712.13;4923292;28;20061;-88
2022/03/08 09:29:04;;;;;;;201.43;73.25;;;;;;;16.59;30.03;93710.41;4949666;28;20130;-87
2022/03/08 09:31:30;;;;;;;157.82;64.47;;;;;;;16.57;30.24;93721.81;4922302;28;20035;-86
2022/03/08 09:33:55;;;;;;;137.73;59.35;;;;;;;16.57;30.00;93719.06;4936826;28;20035;-91
2022/03/08 09:36:21;;;;;;;153.93;61.42;;;;;;;16.60;30.25;93711.88;4927770;28;20069;-91
2022/03/08 09:38:46;;;;;;;153.98;67.65;;;;;;;16.62;29.88;93701.22;4952678;28;20051;-90
2022/03/08 09:41:12;;;;;;;158.55;74.03;;;;;;;16.63;29.87;93713.63;4955798;28;20050;-90
2022/03/08 09:43:37;;;;;;;162.75;76.10;;;;;;;16.63;30.38;93705.44;4918853;29;20074;-88
2022/03/08 09:46:03;;;;;;;199.93;93.45;;;;;;;16.61;30.18;93703.22;4895684;29;20055;-88
2022/03/08 09:48:29;;;;;;;203.25;96.63;;;;;;;16.63;30.30;93716.38;4883613;29;20211;-89
2022/03/08 09:51:00;;;;;;;171.93;80.70;;;;;;;16.62;30.11;93709.41;4905122;29;20044;-89
2022/03/08 09:53:26;;;;;;;184.00;86.55;;;;;;;16.61;30.00;93714.13;4906694;29;20051;-89
2022/03/08 09:55:56;;;;;;;160.20;79.28;;;;;;;16.61;30.26;93716.09;4898647;29;20127;-90
2022/03/08 09:58:22;;;;;;;178.67;87.13;;;;;;;16.60;29.97;93709.91;4884715;29;20044;-91
2022/03/08 10:00:47;;;;;;;172.57;84.22;;;;;;;16.57;29.73;93716.34;4897106;29;20051;-87
2022/03/08 10:03:12;;;;;;;100.90;49.92;;;;;;;16.49;26.72;93718.03;4890811;29;20382;-87
2022/03/08 10:05:43;;;;;;;109.82;50.10;;;;;;;16.45;27.06;93726.44;4911579;29;20060;-91
2022/03/08 10:08:19;;;;;;;116.65;54.53;;;;;;;16.44;27.11;93727.72;4900045;29;20044;-90
2022/03/08 10:11:00;;;;;;;109.40;49.95;;;;;;;16.43;26.65;93730.94;4891369;29;20048;-89
2022/03/08 10:13:32;;;;;;;121.38;52.42;;;;;;;16.44;27.13;93730.44;4906106;28;20044;-87
2022/03/08 10:16:14;;;;;;;113.78;58.97;;;;;;;16.47;28.04;93728.69;4944501;28;20065;-87
2022/03/08 10:18:46;;;;;;;124.38;60.15;;;;;;;16.47;28.80;93723.25;4943550;28;20387;-88
2022/03/08 10:21:28;;;;;;;119.72;63.90;;;;;;;16.48;28.78;93713.06;4945175;28;20607;-87
2022/03/08 10:23:54;;;;;;;119.57;61.88;;;;;;;16.49;28.38;93714.56;4933678;28;20031;-87
2022/03/08 10:26:20;;;;;;;162.68;70.18;;;;;;;16.50;29.08;93713.31;4936140;28;20058;-88
2022/03/08 10:28:48;;;;;;;138.45;61.60;;;;;;;16.51;29.07;93709.38;4926893;28;20601;-86
2022/03/08 10:31:14;;;;;;;121.18;56.92;;;;;;;16.52;28.72;93699.94;4926307;28;20039;-90
2022/03/08 10:33:40;;;;;;;121.50;57.72;;;;;;;16.51;28.99;93699.19;4925213;28;20027;-89
2022/03/08 10:36:16;;;;;;;121.28;57.05;;;;;;;16.54;29.16;93700.94;4942147;28;20073;-87
2022/03/08 10:39:10;;;;;;;111.15;58.88;;;;;;;16.53;29.22;93710.38;4925983;28;20046;-87
2022/03/08 10:41:56;;;;;;;105.05;54.63;;;;;;;16.54;29.30;93708.38;4957635;28;20110;-87
2022/03/08 10:44:35;;;;;;;109.05;54.08;;;;;;;16.57;29.52;93707.41;4958186;28;20051;-89
2022/03/08 10:47:06;;;;;;;109.57;53.13;;;;;;;16.53;29.31;93710.38;4946156;29;20078;-85
2022/03/08 10:49:35;;;;;;;101.90;42.78;;;;;;;16.44;27.32;93708.63;4922397;29;20055;-84
2022/03/08 10:52:03;;;;;;;95.93;41.95;;;;;;;16.44;27.01;93703.16;4956246;28;20050;-84
2022/03/08 10:54:30;;;;;;;108.55;50.28;;;;;;;16.48;27.36;93699.44;4947148;28;20066;-87
2022/03/08 10:56:55;;;;;;;98.47;42.80;;;;;;;16.45;26.93;93693.72;4927684;29;20039;-87
2022/03/08 10:59:21;;;;;;;124.35;49.13;;;;;;;16.43;27.83;93690.00;4923040;29;20043;-87
2022/03/08 11:01:46;;;;;;;202.73;57.15;;;;;;;16.45;28.43;93704.63;4941446;28;20035;-85
2022/03/08 11:04:22;;;;;;;154.85;51.15;;;;;;;16.53;28.67;93704.91;4917821;28;20042;-85
2022/03/08 11:06:50;;;;;;;119.97;50.00;;;;;;;16.55;28.90;93688.03;4946928;28;20038;-85
2022/03/08 11:09:17;;;;;;;102.43;47.78;;;;;;;16.55;29.09;93698.97;4938924;28;20031;-84
2022/03/08 11:11:43;;;;;;;108.30;48.85;;;;;;;16.56;29.81;93692.25;4931384;23;20126;-88
2022/03/08 11:14:09;;;;;;;91.78;46.05;;;;;;;16.59;29.23;93689.31;4924916;28;20071;-85
2022/03/08 11:16:34;;;;;;;104.88;48.53;;;;;;;16.60;29.12;93693.53;4938330;29;20466;-92